createdAt,value
2023-04-16T00:02:49.260Z,83.96
2023-04-16T00:07:55.408Z,83.88
2023-04-16T00:13:01.394Z,83.86
2023-04-16T00:18:06.986Z,83.81
2023-04-16T00:23:12.630Z,83.91
2023-04-16T00:28:18.175Z,84.05
2023-04-16T00:33:24.056Z,84.07
2023-04-16T00:38:32.122Z,84.24
2023-04-16T00:43:37.725Z,84.47
2023-04-16T00:48:45.051Z,84.33
2023-04-16T00:53:51.135Z,84.35
2023-04-16T00:58:57.148Z,84.39
2023-04-16T01:04:03.040Z,84.46
2023-04-16T01:09:10.086Z,84.49
2023-04-16T01:14:15.958Z,84.52
2023-04-16T01:19:21.845Z,84.44
2023-04-16T01:24:27.709Z,84.47
2023-04-16T01:29:33.376Z,84.42
2023-04-16T01:34:39.249Z,84.58
2023-04-16T01:39:45.217Z,84.57
2023-04-16T01:44:51.035Z,84.43
2023-04-16T01:49:56.972Z,84.50
2023-04-16T01:55:03.298Z,84.49
2023-04-16T02:00:11.834Z,84.32
2023-04-16T02:05:17.961Z,84.32
2023-04-16T02:10:23.710Z,84.38
2023-04-16T02:15:29.604Z,84.37
2023-04-16T02:20:35.972Z,84.54
2023-04-16T02:25:43.242Z,84.63
2023-04-16T02:30:48.855Z,84.57
2023-04-16T02:35:54.569Z,84.65
2023-04-16T02:41:00.590Z,84.61
2023-04-16T02:46:06.324Z,84.50
2023-04-16T02:51:12.217Z,84.65
2023-04-16T02:56:17.872Z,84.69
2023-04-16T03:01:23.583Z,84.82
2023-04-16T03:06:29.360Z,84.81
2023-04-16T03:11:35.178Z,84.69
2023-04-16T03:16:41.095Z,84.76
2023-04-16T03:21:46.863Z,84.79
2023-04-16T03:26:52.513Z,84.78
2023-04-16T03:31:58.310Z,84.77
2023-04-16T03:37:05.657Z,84.89
2023-04-16T03:42:11.555Z,85.00
2023-04-16T03:47:17.407Z,85.08
2023-04-16T03:52:23.042Z,85.07
2023-04-16T03:57:28.650Z,85.09
2023-04-16T04:02:34.337Z,85.25
2023-04-16T04:07:40.392Z,85.29
2023-04-16T04:12:46.183Z,85.22
2023-04-16T04:17:52.168Z,84.97
2023-04-16T04:22:58.378Z,85.00
2023-04-16T04:28:04.361Z,84.82
2023-04-16T04:33:10.207Z,84.76
2023-04-16T04:38:19.515Z,84.76
2023-04-16T04:43:25.614Z,84.78
2023-04-16T04:48:31.413Z,84.58
2023-04-16T04:53:37.148Z,84.65
2023-04-16T04:58:43.150Z,84.76
2023-04-16T05:03:48.805Z,84.69
2023-04-16T05:08:54.510Z,84.57
2023-04-16T05:14:00.176Z,84.47
2023-04-16T05:19:06.076Z,84.54
2023-04-16T05:24:13.058Z,84.46
2023-04-16T05:29:21.548Z,84.40
2023-04-16T05:34:27.521Z,84.35
2023-04-16T05:39:33.171Z,84.19
2023-04-16T05:44:38.846Z,84.18
2023-04-16T05:49:44.480Z,84.07
2023-04-16T05:54:50.134Z,84.00
2023-04-16T05:59:55.961Z,84.00
2023-04-16T06:05:01.612Z,83.68
2023-04-16T06:10:10.031Z,83.76
2023-04-16T06:15:15.912Z,83.55
2023-04-16T06:20:21.808Z,83.36
2023-04-16T06:25:27.527Z,83.51
2023-04-16T06:30:33.813Z,83.02
2023-04-16T06:35:39.393Z,82.89
2023-04-16T06:40:45.264Z,82.46
2023-04-16T06:45:50.928Z,82.13
2023-04-16T06:50:59.240Z,81.69
2023-04-16T06:56:06.026Z,81.77
2023-04-16T07:01:11.977Z,81.67
2023-04-16T07:06:17.666Z,81.32
2023-04-16T07:11:23.366Z,81.35
2023-04-16T07:16:29.256Z,80.65
2023-04-16T07:21:34.950Z,80.56
2023-04-16T07:26:40.668Z,80.35
2023-04-16T07:31:47.282Z,79.65
2023-04-16T07:36:53.118Z,79.39
2023-04-16T07:41:58.794Z,79.62
2023-04-16T07:47:05.776Z,79.35
2023-04-16T07:52:12.018Z,78.98
2023-04-16T07:57:17.731Z,79.14
2023-04-16T08:02:23.628Z,79.13
2023-04-16T08:07:29.352Z,78.42
2023-04-16T08:12:35.388Z,78.44
2023-04-16T08:17:41.172Z,78.04
2023-04-16T08:22:48.284Z,77.94
2023-04-16T08:27:54.058Z,77.15
2023-04-16T08:32:59.915Z,77.14
2023-04-16T08:38:07.696Z,76.99
2023-04-16T08:43:16.409Z,77.29
2023-04-16T08:48:23.978Z,77.24
2023-04-16T08:53:41.236Z,77.18
2023-04-16T08:58:50.227Z,77.50
2023-04-16T09:03:57.353Z,76.97
2023-04-16T09:09:05.032Z,77.11
2023-04-16T09:14:12.326Z,77.35
2023-04-16T09:19:18.232Z,77.83
2023-04-16T09:24:24.686Z,77.95
2023-04-16T09:29:38.372Z,77.75
2023-04-16T09:35:01.397Z,77.86
2023-04-16T09:40:10.133Z,77.70
2023-04-16T09:45:15.879Z,77.48
2023-04-16T09:50:21.933Z,77.33
2023-04-16T09:55:29.777Z,76.71
2023-04-16T10:00:35.589Z,76.36
2023-04-16T10:05:49.066Z,76.35
2023-04-16T10:10:56.129Z,76.03
2023-04-16T10:16:03.500Z,76.25
2023-04-16T10:21:11.497Z,76.11
2023-04-16T10:26:19.661Z,76.23
2023-04-16T10:31:27.390Z,76.13
2023-04-16T10:36:37.926Z,76.42
2023-04-16T10:41:45.582Z,76.46
2023-04-16T10:46:51.518Z,76.21
2023-04-16T10:51:59.451Z,76.04
2023-04-16T10:57:08.671Z,75.96
2023-04-16T11:02:17.758Z,76.14
2023-04-16T11:07:34.704Z,75.76
2023-04-16T11:12:42.512Z,76.08
2023-04-16T11:17:51.569Z,75.99
2023-04-16T11:22:58.602Z,76.11
2023-04-16T11:28:04.994Z,76.17
2023-04-16T11:33:12.495Z,76.07
2023-04-16T11:38:20.927Z,76.19
2023-04-16T11:43:27.934Z,76.23
2023-04-16T11:48:51.856Z,76.42
2023-04-16T11:53:58.324Z,76.08
2023-04-16T11:59:16.186Z,76.17
2023-04-16T12:04:26.420Z,75.90
2023-04-16T12:09:32.444Z,75.99
2023-04-16T12:14:38.384Z,75.92
2023-04-16T12:19:52.534Z,75.79
2023-04-16T12:25:05.696Z,75.82
2023-04-16T12:30:14.214Z,76.11
2023-04-16T12:35:33.555Z,76.23
2023-04-16T12:40:39.310Z,76.27
2023-04-16T12:45:44.956Z,76.38
2023-04-16T12:50:53.511Z,76.53
2023-04-16T12:55:59.630Z,76.26
2023-04-16T13:01:05.579Z,76.39
2023-04-16T13:06:11.988Z,76.18
2023-04-16T13:11:19.218Z,75.80
2023-04-16T13:16:25.760Z,75.73
2023-04-16T13:21:31.706Z,75.73
2023-04-16T13:26:37.492Z,75.54
2023-04-16T13:31:43.205Z,75.72
2023-04-16T13:36:49.069Z,75.63
2023-04-16T13:41:54.881Z,75.46
2023-04-16T13:47:01.027Z,75.51
2023-04-16T13:52:07.136Z,75.42
2023-04-16T13:57:13.440Z,75.21
2023-04-16T14:02:19.159Z,75.33
2023-04-16T14:07:26.682Z,75.25
2023-04-16T14:12:32.829Z,74.86
2023-04-16T14:17:38.922Z,74.72
2023-04-16T14:22:46.236Z,74.48
2023-04-16T14:27:51.926Z,74.41
2023-04-16T14:32:57.822Z,73.89
2023-04-16T14:38:03.583Z,73.72
2023-04-16T14:43:09.404Z,73.40
2023-04-16T14:48:15.120Z,73.44
2023-04-16T14:53:21.054Z,73.21
2023-04-16T14:58:28.153Z,73.19
2023-04-16T15:03:34.254Z,73.39
2023-04-16T15:08:40.096Z,73.64
2023-04-16T15:13:45.815Z,73.53
2023-04-16T15:18:51.776Z,73.89
2023-04-16T15:23:57.681Z,74.09
2023-04-16T15:29:03.823Z,74.15
2023-04-16T15:34:09.883Z,74.26
2023-04-16T15:39:15.673Z,74.42
2023-04-16T15:44:21.680Z,74.54
2023-04-16T15:49:27.898Z,74.50
2023-04-16T15:54:33.865Z,74.61
2023-04-16T15:59:39.943Z,74.57
2023-04-16T16:04:46.103Z,74.76
2023-04-16T16:09:52.700Z,74.76
2023-04-16T16:14:58.838Z,74.88
2023-04-16T16:20:09.871Z,74.93
2023-04-16T16:25:16.192Z,74.97
2023-04-16T16:30:22.106Z,75.04
2023-04-16T16:35:27.881Z,75.18
2023-04-16T16:40:33.991Z,75.19
2023-04-16T16:45:39.832Z,75.35
2023-04-16T16:50:45.529Z,75.29
2023-04-16T16:55:51.217Z,75.35
2023-04-16T17:00:57.032Z,75.56
2023-04-16T17:06:02.894Z,75.54
2023-04-16T17:11:08.631Z,75.77
2023-04-16T17:16:16.434Z,75.76
2023-04-16T17:21:22.299Z,75.72
2023-04-16T17:26:28.132Z,75.83
2023-04-16T17:31:33.996Z,75.96
2023-04-16T17:36:40.116Z,76.06
2023-04-16T17:41:46.173Z,76.11
2023-04-16T17:46:51.891Z,76.19
2023-04-16T17:51:57.767Z,76.30
2023-04-16T17:57:03.569Z,76.31
2023-04-16T18:02:09.874Z,76.39
2023-04-16T18:07:16.197Z,76.40
2023-04-16T18:12:22.045Z,76.43
2023-04-16T18:17:28.559Z,76.43
2023-04-16T18:22:34.433Z,76.57
2023-04-16T18:27:40.443Z,76.68
2023-04-16T18:33:04.279Z,76.69
2023-04-16T18:38:13.220Z,76.72
2023-04-16T18:43:18.985Z,76.78
2023-04-16T18:48:25.035Z,76.83
2023-04-16T18:53:31.071Z,76.86
2023-04-16T18:58:36.885Z,76.91
2023-04-16T19:03:42.837Z,77.00
2023-04-16T19:08:48.564Z,77.09
2023-04-16T19:13:54.484Z,77.11
2023-04-16T19:19:00.497Z,77.28
2023-04-16T19:24:07.484Z,77.33
2023-04-16T19:29:13.176Z,77.40
2023-04-16T19:34:18.866Z,77.44
2023-04-16T19:39:27.718Z,77.63
2023-04-16T19:44:33.413Z,77.61
2023-04-16T19:49:39.329Z,77.68
2023-04-16T19:54:45.008Z,77.79
2023-04-16T19:59:50.762Z,77.81
2023-04-16T20:04:56.753Z,77.93
2023-04-16T20:10:03.191Z,78.01
2023-04-16T20:15:11.713Z,78.07
2023-04-16T20:20:17.641Z,78.13
2023-04-16T20:25:25.914Z,78.29
2023-04-16T20:30:38.243Z,78.43
2023-04-16T20:35:43.898Z,78.51
2023-04-16T20:40:57.727Z,78.58
2023-04-16T20:46:03.606Z,78.79
2023-04-16T20:51:09.832Z,78.82
2023-04-16T20:56:15.685Z,78.96
2023-04-16T21:01:21.410Z,79.00
2023-04-16T21:06:27.634Z,79.21
2023-04-16T21:11:34.692Z,79.42
2023-04-16T21:16:40.440Z,79.63
2023-04-16T21:21:46.230Z,79.56
2023-04-16T21:26:51.954Z,79.44
2023-04-16T21:31:57.743Z,79.49
2023-04-16T21:37:03.576Z,79.64
2023-04-16T21:42:09.425Z,79.71
2023-04-16T21:47:15.729Z,79.81
2023-04-16T21:52:21.644Z,79.86
2023-04-16T21:57:27.209Z,79.86
2023-04-16T22:02:33.684Z,79.97
2023-04-16T22:07:39.498Z,79.89
2023-04-16T22:12:46.162Z,80.01
2023-04-16T22:17:51.801Z,80.11
2023-04-16T22:22:58.333Z,80.17
2023-04-16T22:28:04.276Z,80.22
2023-04-16T22:33:09.959Z,80.24
2023-04-16T22:38:16.736Z,80.26
2023-04-16T22:43:22.255Z,80.36
2023-04-16T22:48:27.948Z,80.45
2023-04-16T22:53:34.014Z,80.48
2023-04-16T22:58:40.050Z,80.56
2023-04-16T23:03:45.989Z,80.63
2023-04-16T23:08:51.626Z,80.68
2023-04-16T23:13:58.406Z,80.74
2023-04-16T23:19:04.490Z,80.89
2023-04-16T23:24:10.502Z,80.91
2023-04-16T23:29:16.350Z,80.98
2023-04-16T23:34:22.010Z,81.21
2023-04-16T23:39:27.638Z,81.15
2023-04-16T23:44:33.174Z,81.17
2023-04-16T23:49:38.800Z,81.14
2023-04-16T23:54:44.648Z,81.21
2023-04-16T23:59:50.452Z,81.21
